Time;durP1;ratioP1;P1;durP2;ratioP2;P2;SDS_P1;SDS_P2;PMS_P1;PMS_P2;Temp;Humidity;BMP_temperature;BMP_pressure;BME280_temperature;BME280_humidity;BME280_pressure;Samples;Min_cycle;Max_cycle;Signal;HPM_P1;HPM_P2
2022/05/08 00:01:39;;;;;;;7.80;7.05;;;;;;;13.29;58.91;101552.06;5089082;28;20028;-30
2022/05/08 00:04:05;;;;;;;8.35;7.55;;;;;;;13.25;59.11;101539.72;5083243;28;20464;-31
2022/05/08 00:06:30;;;;;;;8.40;7.50;;;;;;;13.24;59.21;101541.47;5082509;28;20510;-30
2022/05/08 00:08:56;;;;;;;8.50;7.70;;;;;;;13.21;58.99;101542.38;5086765;28;20028;-30
2022/05/08 00:11:21;;;;;;;9.10;7.13;;;;;;;13.17;59.31;101539.78;5061520;28;20511;-31
2022/05/08 00:13:47;;;;;;;7.95;7.20;;;;;;;13.13;59.12;101541.56;5080073;28;20028;-32
2022/05/08 00:16:13;;;;;;;9.82;7.88;;;;;;;13.11;59.68;101539.81;5080446;28;20510;-30
2022/05/08 00:18:39;;;;;;;8.55;7.50;;;;;;;13.08;59.39;101546.00;5085838;28;20484;-30
2022/05/08 00:21:05;;;;;;;8.63;7.82;;;;;;;13.06;59.64;101542.47;5086181;28;20035;-32
2022/05/08 00:23:31;;;;;;;7.93;7.15;;;;;;;13.04;60.24;101544.28;5082403;28;20073;-29
2022/05/08 00:25:56;;;;;;;9.20;8.32;;;;;;;13.01;59.97;101545.13;5103261;28;20023;-31
2022/05/08 00:28:21;;;;;;;9.98;8.98;;;;;;;13.00;60.24;101542.53;5081873;28;20226;-29
2022/05/08 00:30:47;;;;;;;10.00;8.57;;;;;;;12.99;60.63;101546.03;5077075;28;20024;-31
2022/05/08 00:33:12;;;;;;;10.05;8.93;;;;;;;12.95;60.66;101540.75;5086240;28;20457;-30
2022/05/08 00:35:38;;;;;;;9.73;8.82;;;;;;;12.96;61.14;101544.28;5084934;28;20070;-30
2022/05/08 00:38:03;;;;;;;9.48;8.57;;;;;;;12.92;61.03;101548.75;5084185;28;20032;-32
2022/05/08 00:40:32;;;;;;;10.27;9.23;;;;;;;12.91;61.40;101549.59;5082722;28;20024;-32
2022/05/08 00:43:24;;;;;;;10.45;9.48;;;;;;;12.91;61.83;101554.03;5083946;28;20478;-31
2022/05/08 00:45:50;;;;;;;10.65;9.65;;;;;;;12.89;62.16;101548.75;5084410;28;20284;-30
2022/05/08 00:48:15;;;;;;;11.02;8.90;;;;;;;12.89;62.39;101550.50;5082680;28;20119;-31
2022/05/08 00:50:40;;;;;;;9.77;8.80;;;;;;;12.87;62.41;101545.22;5082805;28;20019;-30
2022/05/08 00:53:06;;;;;;;10.20;9.25;;;;;;;12.86;63.00;101551.41;5079686;28;20037;-30
2022/05/08 00:55:31;;;;;;;10.32;9.07;;;;;;;12.85;62.75;101544.34;5081546;28;20023;-31
2022/05/08 00:57:56;;;;;;;10.70;9.43;;;;;;;12.85;62.65;101554.06;5081149;28;20060;-32
2022/05/08 01:00:22;;;;;;;10.88;9.50;;;;;;;12.83;62.26;101539.06;5095928;28;20028;-31
2022/05/08 01:02:47;;;;;;;10.25;9.20;;;;;;;12.85;63.00;101559.34;5080223;28;20024;-31
2022/05/08 01:05:12;;;;;;;10.23;9.23;;;;;;;12.85;63.47;101554.94;5083430;28;20032;-30
2022/05/08 01:07:38;;;;;;;10.45;9.35;;;;;;;12.84;63.39;101553.19;5083806;28;20047;-31
2022/05/08 01:10:04;;;;;;;10.93;9.05;;;;;;;12.86;63.63;101553.16;5103418;28;20028;-31
2022/05/08 01:12:32;;;;;;;10.35;9.35;;;;;;;12.84;64.06;101553.19;5081941;28;20082;-31
2022/05/08 01:15:17;;;;;;;10.70;9.50;;;;;;;12.85;64.13;101554.94;5086578;28;20028;-32
2022/05/08 01:17:42;;;;;;;10.68;8.82;;;;;;;12.86;64.12;101562.00;5084676;28;20077;-32
2022/05/08 01:20:08;;;;;;;9.70;8.70;;;;;;;12.87;64.14;101568.19;5083872;28;20024;-30
2022/05/08 01:22:33;;;;;;;11.68;10.48;;;;;;;12.82;64.26;101561.13;5080158;28;20031;-30
2022/05/08 01:25:00;;;;;;;10.40;9.50;;;;;;;12.85;64.47;101568.19;5083786;28;20479;-31
2022/05/08 01:27:25;;;;;;;9.52;8.50;;;;;;;12.85;64.15;101573.47;5086420;28;20024;-30
2022/05/08 01:29:50;;;;;;;10.00;8.98;;;;;;;12.84;64.12;101571.72;5078885;28;20024;-31
2022/05/08 01:32:15;;;;;;;8.90;8.05;;;;;;;12.85;63.85;101573.47;5081275;28;20039;-31
2022/05/08 01:34:41;;;;;;;10.60;9.45;;;;;;;12.85;63.84;101573.47;5078328;28;20031;-31
2022/05/08 01:37:06;;;;;;;9.95;8.98;;;;;;;12.84;63.42;101569.09;5084515;28;20108;-30
2022/05/08 01:39:31;;;;;;;10.65;9.55;;;;;;;12.85;63.39;101583.19;5077400;28;20043;-32
2022/05/08 01:41:57;;;;;;;9.82;8.82;;;;;;;12.85;63.58;101576.13;5076301;28;20111;-30
2022/05/08 01:44:24;;;;;;;10.60;8.38;;;;;;;12.83;63.02;101573.47;5081297;28;20423;-30
2022/05/08 01:48:21;;;;;;;10.38;8.48;;;;;;;12.82;63.01;101571.72;5078282;28;20024;-31
2022/05/08 01:49:34;;;;;;;9.85;8.80;;;;;;;12.82;63.04;101584.06;5084218;28;20097;-31
2022/05/08 01:51:59;;;;;;;10.00;9.00;;;;;;;12.79;63.01;101573.50;5083754;28;20480;-30
2022/05/08 01:54:25;;;;;;;9.18;8.02;;;;;;;12.81;62.63;101584.97;5079716;28;20036;-30
2022/05/08 01:56:51;;;;;;;9.35;8.32;;;;;;;12.81;63.16;101584.97;5079018;28;20028;-30
2022/05/08 01:59:16;;;;;;;12.02;9.05;;;;;;;12.78;62.76;101579.69;5081431;28;20020;-31
2022/05/08 02:01:43;;;;;;;9.88;8.88;;;;;;;12.78;62.76;101590.28;5079127;28;20433;-30
2022/05/08 02:04:15;;;;;;;9.40;8.32;;;;;;;12.78;62.90;101596.47;5080971;28;20093;-31
2022/05/08 02:06:40;;;;;;;8.82;7.68;;;;;;;12.74;62.67;101589.38;5076708;28;20055;-30
2022/05/08 02:09:06;;;;;;;9.18;7.95;;;;;;;12.74;62.81;101589.38;5081207;28;20476;-30
2022/05/08 02:11:31;;;;;;;10.93;8.23;;;;;;;12.73;62.68;101586.78;5078670;28;20747;-31
2022/05/08 02:13:56;;;;;;;8.32;7.53;;;;;;;12.71;62.47;101592.06;5078798;28;20046;-29
2022/05/08 02:16:22;;;;;;;9.15;8.32;;;;;;;12.68;62.41;101590.28;5084325;28;20028;-31
2022/05/08 02:18:47;;;;;;;8.80;7.95;;;;;;;12.68;62.46;101587.63;5084702;28;20024;-29
2022/05/08 02:21:12;;;;;;;8.30;6.80;;;;;;;12.66;62.47;101589.44;5080923;28;20111;-30
2022/05/08 02:23:38;;;;;;;9.10;8.20;;;;;;;12.66;62.24;101596.47;5089185;28;20032;-31
2022/05/08 02:26:03;;;;;;;8.93;7.85;;;;;;;12.65;62.28;101600.91;5086036;28;20452;-30
2022/05/08 02:28:28;;;;;;;8.88;7.70;;;;;;;12.63;62.17;101592.06;5084781;28;20529;-30
2022/05/08 02:30:54;;;;;;;8.70;7.80;;;;;;;12.62;62.52;101594.72;5079268;28;20035;-31
2022/05/08 02:33:19;;;;;;;10.23;7.88;;;;;;;12.61;62.23;101593.88;5081925;28;20561;-31
2022/05/08 02:35:44;;;;;;;7.53;6.82;;;;;;;12.59;62.47;101590.31;5078676;28;20027;-31
2022/05/08 02:38:10;;;;;;;8.52;7.15;;;;;;;12.59;62.68;101600.91;5079447;28;20035;-31
2022/05/08 02:40:36;;;;;;;8.57;7.25;;;;;;;12.56;62.28;101595.63;5074774;28;20028;-31
2022/05/08 02:43:01;;;;;;;7.53;6.72;;;;;;;12.56;62.30;101592.97;5076977;28;20043;-30
2022/05/08 02:45:26;;;;;;;8.63;7.60;;;;;;;12.55;62.66;101593.88;5093578;28;20474;-31
2022/05/08 02:47:52;;;;;;;8.07;6.95;;;;;;;12.55;62.93;101585.94;5076515;28;20046;-30
2022/05/08 02:50:19;;;;;;;7.97;7.25;;;;;;;12.54;63.43;101594.75;5078588;28;20031;-30
2022/05/08 02:52:45;;;;;;;7.93;7.10;;;;;;;12.53;63.54;101590.31;5083459;28;20024;-30
2022/05/08 03:00:41;;;;;;;8.63;7.18;;;;;;;12.52;64.62;101599.16;5075729;28;20054;-29
2022/05/08 03:03:07;;;;;;;8.68;7.72;;;;;;;12.52;64.80;101585.94;5076425;28;20025;-29
2022/05/08 03:05:33;;;;;;;9.80;8.60;;;;;;;12.52;64.60;101596.50;5078818;28;20024;-30
2022/05/08 03:07:58;;;;;;;8.95;8.05;;;;;;;12.52;64.83;101600.06;5077687;28;20499;-31
2022/05/08 03:10:23;;;;;;;8.93;7.38;;;;;;;12.54;64.54;101597.41;5081565;28;20437;-30
2022/05/08 03:12:49;;;;;;;9.25;8.00;;;;;;;12.52;64.86;101593.88;5094489;28;20032;-30
2022/05/08 03:15:14;;;;;;;8.38;7.53;;;;;;;12.53;65.09;101598.25;5079253;28;20061;-31
2022/05/08 03:17:39;;;;;;;8.93;7.15;;;;;;;12.52;64.92;101589.47;5084947;28;20027;-31
2022/05/08 03:20:05;;;;;;;10.02;8.48;;;;;;;12.53;64.70;101600.91;5076443;28;20121;-31
2022/05/08 03:22:31;;;;;;;10.38;8.60;;;;;;;12.53;65.05;101604.44;5082499;28;20106;-31
2022/05/08 03:24:56;;;;;;;9.13;8.20;;;;;;;12.52;64.76;101605.34;5082947;28;20427;-32
2022/05/08 03:27:21;;;;;;;9.40;8.43;;;;;;;12.53;64.35;101612.41;5082245;28;20028;-30
2022/05/08 03:29:47;;;;;;;9.80;8.15;;;;;;;12.54;64.38;101618.56;5097016;28;20023;-31
2022/05/08 03:32:12;;;;;;;9.82;8.20;;;;;;;12.53;64.44;101617.69;5083798;28;20044;-32
2022/05/08 03:34:37;;;;;;;11.70;8.35;;;;;;;12.54;64.90;101618.56;5080063;28;20028;-30
2022/05/08 03:37:04;;;;;;;9.68;8.32;;;;;;;12.53;64.50;101622.09;5083170;28;20085;-31
2022/05/08 03:39:29;;;;;;;8.48;7.65;;;;;;;12.54;64.92;101610.63;5081516;28;20024;-31
2022/05/08 03:41:54;;;;;;;9.57;8.02;;;;;;;12.54;64.49;101621.22;5084637;28;20392;-31
2022/05/08 03:44:20;;;;;;;10.70;8.98;;;;;;;12.54;65.08;101623.88;5079506;28;20119;-31
2022/05/08 03:46:45;;;;;;;9.00;7.90;;;;;;;12.54;65.35;101623.88;5081545;28;20123;-31
2022/05/08 03:49:10;;;;;;;9.63;8.60;;;;;;;12.54;65.05;101626.50;5081613;28;20043;-31
2022/05/08 03:51:36;;;;;;;9.85;8.00;;;;;;;12.54;64.99;101624.72;5082188;28;20028;-30
2022/05/08 03:54:02;;;;;;;8.60;7.60;;;;;;;12.53;65.08;101622.09;5076944;28;20060;-31
2022/05/08 03:56:28;;;;;;;9.07;8.00;;;;;;;12.54;65.26;101624.72;5077786;28;20039;-30
2022/05/08 03:58:53;;;;;;;10.95;8.25;;;;;;;12.54;65.08;101630.03;5081892;28;20414;-29
2022/05/08 04:01:18;;;;;;;10.02;8.82;;;;;;;12.54;64.83;101626.50;5076534;28;20028;-31
2022/05/08 04:03:44;;;;;;;10.75;8.73;;;;;;;12.54;65.08;101629.16;5075199;28;20024;-32
2022/05/08 04:06:09;;;;;;;11.00;9.40;;;;;;;12.54;65.56;101629.16;5080368;28;20499;-31
2022/05/08 04:08:34;;;;;;;8.50;7.20;;;;;;;12.53;64.79;101622.97;5079668;28;20032;-30
2022/05/08 04:11:00;;;;;;;8.68;7.72;;;;;;;12.54;65.25;101637.09;5078989;28;20032;-30
2022/05/08 04:13:25;;;;;;;8.73;7.82;;;;;;;12.55;65.35;101630.91;5081239;28;20040;-30
2022/05/08 04:18:35;;;;;;;9.63;8.07;;;;;;;12.54;65.89;101650.31;5081491;28;20035;-31
2022/05/08 04:21:00;;;;;;;9.07;8.15;;;;;;;12.52;66.39;101641.50;5084528;28;20036;-30
2022/05/08 04:26:10;;;;;;;12.13;8.27;;;;;;;12.53;66.04;101648.53;5078847;28;20109;-31
2022/05/08 04:28:35;;;;;;;9.70;7.80;;;;;;;12.53;66.18;101648.53;5085459;28;20192;-30
2022/05/08 04:31:00;;;;;;;11.70;8.32;;;;;;;12.53;66.08;101651.19;5077617;28;20016;-31
2022/05/08 04:33:26;;;;;;;9.43;7.78;;;;;;;12.54;65.96;101655.63;5084825;28;20028;-30
2022/05/08 04:35:51;;;;;;;9.32;8.32;;;;;;;12.52;66.12;101658.25;5077622;28;20075;-30
2022/05/08 04:38:16;;;;;;;9.02;7.93;;;;;;;12.54;66.14;101660.91;5083205;28;20032;-30
2022/05/08 04:40:42;;;;;;;10.60;7.72;;;;;;;12.53;65.77;101667.06;5080279;28;20108;-30
2022/05/08 04:43:07;;;;;;;8.70;7.80;;;;;;;12.53;65.87;101664.41;5084499;28;20015;-30
2022/05/08 04:45:33;;;;;;;12.15;8.05;;;;;;;12.53;66.28;101667.97;5084333;28;20114;-31
2022/05/08 04:47:58;;;;;;;8.90;7.20;;;;;;;12.52;66.63;101668.84;5103766;28;20387;-33
2022/05/08 04:50:23;;;;;;;8.27;7.25;;;;;;;12.53;66.48;101675.91;5079260;28;20487;-30
2022/05/08 04:52:49;;;;;;;8.30;7.32;;;;;;;12.53;66.76;101680.28;5085235;28;20032;-30
2022/05/08 04:55:14;;;;;;;8.70;6.85;;;;;;;12.53;66.90;101681.19;5081900;28;20051;-29
2022/05/08 04:57:39;;;;;;;10.52;7.95;;;;;;;12.55;66.29;101683.84;5083813;28;20028;-30
2022/05/08 05:00:05;;;;;;;9.77;7.53;;;;;;;12.51;66.57;101682.94;5080118;28;20510;-31
2022/05/08 05:02:31;;;;;;;8.38;7.25;;;;;;;12.50;66.21;101675.91;5083066;28;20040;-31
2022/05/08 05:04:57;;;;;;;7.18;6.43;;;;;;;12.54;66.61;101688.25;5086351;28;20069;-31
2022/05/08 05:07:23;;;;;;;7.50;6.72;;;;;;;12.55;66.60;101691.78;5080045;28;20400;-29
2022/05/08 05:09:49;;;;;;;8.15;7.25;;;;;;;12.54;66.41;101697.97;5083654;28;20064;-30
2022/05/08 05:12:14;;;;;;;9.00;6.55;;;;;;;12.52;66.26;101695.31;5078720;28;20136;-31
2022/05/08 05:14:40;;;;;;;9.30;6.57;;;;;;;12.54;66.58;101693.53;5081960;28;20445;-31
2022/05/08 05:17:05;;;;;;;9.18;7.07;;;;;;;12.56;66.47;101698.81;5076474;28;20031;-32
2022/05/08 05:19:30;;;;;;;8.65;6.30;;;;;;;12.56;66.49;101701.47;5079952;28;20024;-30
2022/05/08 05:21:56;;;;;;;7.65;6.60;;;;;;;12.55;66.46;101711.19;5081696;28;20046;-32
2022/05/08 05:24:21;;;;;;;8.32;6.97;;;;;;;12.55;67.06;101705.00;5078920;28;20030;-30
2022/05/08 05:26:46;;;;;;;7.55;6.75;;;;;;;12.56;66.35;101706.75;5084777;28;20036;-30
2022/05/08 05:29:11;;;;;;;7.50;6.43;;;;;;;12.56;66.29;101707.66;5094545;28;20143;-30
2022/05/08 05:31:37;;;;;;;8.15;7.35;;;;;;;12.57;66.74;101713.81;5081860;28;20119;-29
2022/05/08 05:34:02;;;;;;;8.15;7.35;;;;;;;12.57;66.35;101711.16;5081006;28;20032;-30
2022/05/08 05:36:27;;;;;;;7.90;6.95;;;;;;;12.58;66.55;101715.59;5094931;28;20027;-30
2022/05/08 05:38:53;;;;;;;7.53;6.47;;;;;;;12.56;66.80;101717.34;5081867;28;20028;-31
2022/05/08 05:41:18;;;;;;;10.18;6.72;;;;;;;12.60;66.86;101718.25;5077742;28;20024;-30
2022/05/08 05:43:43;;;;;;;9.77;6.43;;;;;;;12.60;67.21;101719.09;5080033;28;20024;-30
2022/05/08 05:48:52;;;;;;;10.13;6.82;;;;;;;12.61;66.75;101727.94;5083569;28;20494;-30
2022/05/08 05:51:18;;;;;;;8.77;6.90;;;;;;;12.61;66.95;101731.47;5081117;28;20036;-30
2022/05/08 05:53:43;;;;;;;8.70;6.50;;;;;;;12.61;67.09;101720.00;5078291;28;20106;-31
2022/05/08 05:56:09;;;;;;;6.88;5.95;;;;;;;12.63;66.63;101736.75;5084099;28;20103;-31
2022/05/08 05:58:35;;;;;;;7.85;6.43;;;;;;;12.64;67.12;101736.75;5081854;28;20498;-30
2022/05/08 06:01:00;;;;;;;8.27;6.13;;;;;;;12.64;67.32;101742.03;5082202;28;20023;-31
2022/05/08 06:03:26;;;;;;;11.02;6.43;;;;;;;12.65;67.30;101746.47;5080888;28;20472;-29
2022/05/08 06:05:51;;;;;;;8.23;6.28;;;;;;;12.66;67.47;101748.22;5078127;28;20020;-31
2022/05/08 06:08:16;;;;;;;6.93;6.22;;;;;;;12.68;67.90;101749.09;5077631;28;20118;-31
2022/05/08 06:10:42;;;;;;;10.73;6.47;;;;;;;12.70;67.60;101741.16;5079947;28;20024;-30
2022/05/08 06:13:07;;;;;;;9.10;7.55;;;;;;;12.72;67.90;101747.34;5082252;28;20031;-29
2022/05/08 06:15:32;;;;;;;7.80;6.22;;;;;;;12.75;67.93;101751.75;5079394;28;20055;-29
2022/05/08 06:17:58;;;;;;;9.23;5.72;;;;;;;12.79;67.91;101757.03;5081935;28;20027;-33
2022/05/08 06:20:23;;;;;;;8.93;5.78;;;;;;;12.81;67.87;101754.41;5082939;28;20016;-31
2022/05/08 06:22:48;;;;;;;9.68;5.97;;;;;;;12.84;67.26;101754.41;5079209;28;20127;-31
2022/05/08 06:25:14;;;;;;;10.98;6.55;;;;;;;12.88;67.32;101756.16;5079523;28;20486;-30
2022/05/08 06:27:39;;;;;;;10.52;6.90;;;;;;;12.91;66.89;101760.56;5081663;28;20123;-31
2022/05/08 06:30:08;;;;;;;10.30;6.18;;;;;;;12.94;66.85;101756.13;5078472;28;20056;-30
2022/05/08 06:32:34;;;;;;;8.30;5.50;;;;;;;12.98;66.88;101767.63;5081229;28;20399;-32
2022/05/08 06:35:00;;;;;;;8.05;5.30;;;;;;;13.01;66.99;101772.00;5081768;28;20055;-29
2022/05/08 06:37:25;;;;;;;9.25;5.88;;;;;;;13.04;66.81;101772.88;5087024;28;20122;-31
2022/05/08 06:39:50;;;;;;;7.25;5.60;;;;;;;13.07;66.91;101777.28;5077233;28;20035;-31
2022/05/08 06:42:15;;;;;;;7.80;6.13;;;;;;;13.11;66.45;101773.78;5078293;28;20103;-31
2022/05/08 06:44:41;;;;;;;11.07;6.03;;;;;;;13.14;66.37;101776.38;5079306;28;20119;-31
2022/05/08 06:47:06;;;;;;;9.45;5.70;;;;;;;13.18;66.23;101775.50;5080380;28;20074;-30
2022/05/08 06:49:31;;;;;;;7.85;5.53;;;;;;;13.21;66.10;101785.22;5075882;28;20425;-31
2022/05/08 06:51:57;;;;;;;8.80;5.10;;;;;;;13.24;65.79;101779.03;5081203;28;20054;-31
2022/05/08 06:54:26;;;;;;;9.93;6.15;;;;;;;13.27;65.77;101773.72;5077645;28;20122;-31
2022/05/08 06:56:52;;;;;;;10.10;5.93;;;;;;;13.29;65.58;101778.13;5078520;28;20024;-30
2022/05/08 07:02:01;;;;;;;5.90;4.50;;;;;;;13.34;65.36;101778.13;5076726;28;20608;-29
2022/05/08 07:04:27;;;;;;;8.75;6.40;;;;;;;13.38;65.19;101784.28;5083309;28;20036;-31
2022/05/08 07:06:52;;;;;;;11.68;6.35;;;;;;;13.38;65.18;101784.28;5076973;28;20073;-31
2022/05/08 07:09:18;;;;;;;9.98;5.90;;;;;;;13.41;64.86;101781.63;5079220;28;20035;-29
2022/05/08 07:11:47;;;;;;;6.65;5.65;;;;;;;13.43;64.45;101785.16;5077193;28;20026;-31
2022/05/08 07:14:15;;;;;;;11.40;5.55;;;;;;;13.45;64.97;101784.28;5077454;28;20024;-30
2022/05/08 07:16:41;;;;;;;9.90;5.50;;;;;;;13.48;64.94;101793.97;5076645;28;20016;-31
2022/05/08 07:19:06;;;;;;;12.98;5.78;;;;;;;13.51;64.78;101787.81;5074303;28;20031;-31
2022/05/08 07:21:32;;;;;;;6.68;5.00;;;;;;;13.53;64.70;101786.91;5077081;28;20022;-30
2022/05/08 07:23:57;;;;;;;10.60;6.00;;;;;;;13.57;65.26;101791.31;5091332;28;20044;-30
2022/05/08 07:26:22;;;;;;;9.77;5.45;;;;;;;13.59;65.02;101791.31;5076376;28;20364;-29
2022/05/08 07:28:47;;;;;;;10.90;5.93;;;;;;;13.63;65.34;101795.72;5094008;28;20207;-29
2022/05/08 07:31:13;;;;;;;11.50;5.63;;;;;;;13.67;65.04;101794.81;5079414;28;20040;-31
2022/05/08 07:33:39;;;;;;;8.48;6.15;;;;;;;13.72;65.20;101795.69;5075036;28;20063;-32
2022/05/08 07:36:14;;;;;;;11.10;6.00;;;;;;;13.78;65.01;101793.91;5080969;28;20047;-31
2022/05/08 07:38:45;;;;;;;8.00;5.40;;;;;;;13.83;64.68;101805.34;5076043;28;20343;-30
2022/05/08 07:41:11;;;;;;;8.43;5.28;;;;;;;13.88;64.27;101802.69;5074950;28;20110;-31
2022/05/08 07:43:37;;;;;;;11.95;7.00;;;;;;;13.58;66.00;101800.16;5078599;28;20036;-28
2022/05/08 07:46:03;;;;;;;11.02;5.97;;;;;;;13.63;66.92;101801.00;5082056;28;20066;-28
2022/05/08 07:48:29;;;;;;;11.23;5.85;;;;;;;13.63;66.76;101797.50;5082518;28;20028;-28
2022/05/08 07:50:54;;;;;;;8.65;6.03;;;;;;;13.64;66.73;101807.22;5082791;28;20024;-28
2022/05/08 07:53:20;;;;;;;15.40;7.28;;;;;;;13.82;66.92;101803.59;5102712;28;20024;-27
2022/05/08 07:55:51;;;;;;;14.88;7.18;;;;;;;13.70;67.28;101802.75;5097769;28;20533;-29
2022/05/08 07:58:17;;;;;;;;;;;;;;;13.71;67.33;101808.97;5097693;28;20395;-28
2022/05/08 08:00:42;;;;;;;15.88;6.72;;;;;;;13.71;66.74;101812.47;5078622;28;19912;-28
2022/05/08 08:03:08;;;;;;;8.32;5.85;;;;;;;13.90;67.52;101806.22;5085214;28;20029;-26
2022/05/08 08:05:33;;;;;;;9.02;6.53;;;;;;;13.94;66.12;101808.84;5083360;28;20047;-28
2022/05/08 08:07:58;;;;;;;10.48;6.53;;;;;;;14.03;66.59;101813.22;5077675;28;20035;-28
2022/05/08 08:10:24;;;;;;;10.90;6.20;;;;;;;14.01;66.41;101803.50;5094251;28;20492;-27
2022/05/08 08:12:49;;;;;;;13.10;6.57;;;;;;;14.23;65.96;101814.88;5081223;28;20044;-28
2022/05/08 08:15:14;;;;;;;10.45;6.57;;;;;;;14.35;66.03;101809.50;5097891;28;20115;-29
2022/05/08 08:17:41;;;;;;;12.98;6.85;;;;;;;14.47;65.02;101811.16;5093865;28;20111;-29
2022/05/08 08:20:07;;;;;;;12.95;6.57;;;;;;;14.24;66.15;101817.50;5080570;28;20440;-27
2022/05/08 08:22:33;;;;;;;17.08;6.55;;;;;;;14.01;66.11;101814.13;5084956;28;20109;-27
2022/05/08 08:25:00;;;;;;;17.05;7.40;;;;;;;14.31;65.17;101823.66;5082394;28;20035;-27
2022/05/08 08:27:26;;;;;;;14.82;7.25;;;;;;;14.58;65.36;101827.00;5085191;28;20036;-27
2022/05/08 08:29:52;;;;;;;11.27;6.63;;;;;;;14.73;64.55;101818.06;5080435;28;20028;-28
2022/05/08 08:32:18;;;;;;;13.60;6.88;;;;;;;15.06;64.19;101822.22;5087159;28;20118;-27
2022/05/08 08:34:43;;;;;;;9.70;6.13;;;;;;;15.35;64.07;101829.03;5082195;28;20111;-29
2022/05/08 08:37:08;;;;;;;10.35;6.28;;;;;;;15.10;63.58;101826.59;5080616;28;20029;-28
2022/05/08 08:39:34;;;;;;;11.25;7.20;;;;;;;14.86;63.91;101828.59;5080806;28;20021;-26
2022/05/08 08:42:05;;;;;;;14.73;6.93;;;;;;;14.96;64.18;101821.44;5078322;28;20036;-27
2022/05/08 08:50:03;;;;;;;13.23;8.43;;;;;;;15.41;64.98;101828.97;5078099;28;20039;-29
2022/05/08 08:52:28;;;;;;;13.48;8.48;;;;;;;15.43;65.34;101831.59;5075618;28;20024;-29
2022/05/08 08:54:54;;;;;;;14.02;8.00;;;;;;;15.60;65.03;101839.38;5078351;28;20592;-28
2022/05/08 08:57:19;;;;;;;16.52;8.63;;;;;;;15.29;64.50;101840.63;5083807;28;20118;-29
2022/05/08 08:59:45;;;;;;;14.98;10.52;;;;;;;15.51;63.78;101827.09;5082119;28;20020;-27
2022/05/08 09:02:18;;;;;;;15.60;8.05;;;;;;;15.29;63.73;101842.38;5081684;28;20044;-26
2022/05/08 09:04:49;;;;;;;13.63;9.40;;;;;;;15.42;64.58;101840.47;5081376;28;20389;-29
2022/05/08 09:07:47;;;;;;;9.82;8.15;;;;;;;15.42;63.91;101841.38;5079879;28;20599;-29
2022/05/08 09:10:18;;;;;;;15.35;8.73;;;;;;;15.94;63.72;101841.63;5069911;28;20079;-28
2022/05/08 09:12:53;;;;;;;12.60;6.70;;;;;;;15.95;62.62;101837.19;5081657;28;20019;-27
2022/05/08 09:15:29;;;;;;;16.98;8.20;;;;;;;16.13;62.14;101844.06;5083253;28;20031;-28
2022/05/08 09:18:00;;;;;;;10.98;7.97;;;;;;;16.15;62.66;101843.16;5080117;28;20093;-27
2022/05/08 09:20:31;;;;;;;;;;;;;;;16.19;62.22;101844.00;5081894;28;20063;-28
2022/05/08 09:23:00;;;;;;;10.30;7.57;;;;;;;16.47;61.75;101840.94;5080950;28;19920;-28
2022/05/08 09:25:52;;;;;;;13.52;7.22;;;;;;;16.42;61.80;101841.03;5080349;28;20037;-27
2022/05/08 09:28:18;;;;;;;14.32;8.70;;;;;;;16.24;61.75;101851.94;5085134;28;20039;-28
2022/05/08 09:30:56;;;;;;;14.85;8.55;;;;;;;16.08;62.48;101845.94;5079814;28;20468;-27
2022/05/08 09:33:38;;;;;;;13.25;7.65;;;;;;;16.47;61.88;101854.25;5081944;28;20369;-28
2022/05/08 09:36:10;;;;;;;15.75;7.85;;;;;;;16.85;61.55;101833.25;5083723;28;20141;-29
2022/05/08 09:38:45;;;;;;;17.48;9.00;;;;;;;16.78;61.77;101837.78;5080637;28;20399;-29
2022/05/08 09:41:11;;;;;;;20.23;8.25;;;;;;;17.41;62.00;101850.06;5080871;28;20535;-28
2022/05/08 09:43:37;;;;;;;12.80;8.52;;;;;;;17.31;62.31;101844.03;5079800;28;20031;-27
2022/05/08 09:46:04;;;;;;;14.80;7.68;;;;;;;17.22;61.10;101838.84;5078834;28;20028;-29
2022/05/08 09:48:33;;;;;;;14.70;8.73;;;;;;;17.40;62.19;101840.28;5081237;28;20032;-29
2022/05/08 09:51:04;;;;;;;12.73;7.78;;;;;;;17.33;60.73;101841.34;5076091;28;20044;-27
2022/05/08 09:53:31;;;;;;;14.68;7.35;;;;;;;16.72;60.42;101848.56;5083303;28;20110;-28
2022/05/08 09:55:58;;;;;;;12.73;7.22;;;;;;;16.86;59.75;101848.31;5071997;28;20437;-27
2022/05/08 09:58:24;;;;;;;14.80;7.20;;;;;;;17.14;59.53;101849.66;5079940;28;20502;-29
2022/05/08 10:00:54;;;;;;;9.73;6.93;;;;;;;16.84;60.07;101835.94;5077574;28;20024;-29
2022/05/08 10:03:19;;;;;;;15.77;9.48;;;;;;;17.08;60.01;101849.75;5085778;28;20028;-29
2022/05/08 10:05:45;;;;;;;13.40;8.18;;;;;;;16.78;59.37;101837.78;5081761;28;20043;-27
2022/05/08 10:08:15;;;;;;;12.95;6.90;;;;;;;17.37;60.15;101845.69;5083679;28;20027;-29
2022/05/08 10:14:00;;;;;;;13.15;7.22;;;;;;;17.43;58.91;101848.22;5077331;28;20063;-27
2022/05/08 10:16:48;;;;;;;13.23;7.32;;;;;;;17.56;60.06;101839.09;5082346;28;20028;-28
2022/05/08 10:19:22;;;;;;;10.32;6.88;;;;;;;17.43;58.14;101840.22;5078821;28;20024;-29
2022/05/08 10:21:53;;;;;;;11.23;7.32;;;;;;;17.75;57.50;101849.38;5079270;28;20130;-27
2022/05/08 10:24:31;;;;;;;14.73;6.78;;;;;;;17.62;58.87;101845.19;5079320;28;20403;-28
2022/05/08 10:27:16;;;;;;;12.10;6.53;;;;;;;17.74;57.04;101836.94;5098281;28;20035;-29
2022/05/08 10:29:50;;;;;;;9.02;5.88;;;;;;;17.95;56.88;101837.41;5082628;28;20106;-27
2022/05/08 10:32:44;;;;;;;9.25;6.55;;;;;;;18.01;57.17;101837.25;5077566;28;20333;-27
2022/05/08 10:35:23;;;;;;;10.63;6.40;;;;;;;17.67;55.45;101827.31;5076610;28;20043;-29
2022/05/08 10:37:53;;;;;;;10.77;7.47;;;;;;;17.55;56.58;101842.66;5075988;28;20122;-27
2022/05/08 10:40:22;;;;;;;11.50;7.40;;;;;;;17.70;55.74;101830.81;5077758;28;20082;-28
2022/05/08 10:42:51;;;;;;;15.82;8.75;;;;;;;17.93;56.32;101829.44;5077658;28;20040;-29
2022/05/08 10:45:36;;;;;;;9.10;6.68;;;;;;;18.27;55.91;101832.31;5081663;28;20085;-28
2022/05/08 10:48:20;;;;;;;12.15;6.53;;;;;;;17.89;56.10;101821.53;5084464;28;20437;-28
2022/05/08 10:50:51;;;;;;;11.68;6.65;;;;;;;18.09;55.51;101826.47;5074892;28;20033;-27
2022/05/08 10:53:36;;;;;;;10.20;5.90;;;;;;;18.37;55.96;101816.94;5067651;28;20028;-29
2022/05/08 10:56:09;;;;;;;11.63;7.05;;;;;;;18.34;56.19;101818.75;5081384;28;20042;-29
2022/05/08 10:58:40;;;;;;;11.35;6.70;;;;;;;17.83;55.67;101818.09;5071168;28;20028;-28
2022/05/08 11:01:09;;;;;;;9.35;6.32;;;;;;;18.36;56.79;101823.19;5075257;28;20065;-28
2022/05/08 11:03:35;;;;;;;17.30;7.22;;;;;;;18.43;55.28;101817.66;5082992;28;20036;-28
2022/05/08 11:06:02;;;;;;;11.45;6.70;;;;;;;18.41;55.83;101822.16;5072920;28;20067;-26
2022/05/08 11:08:29;;;;;;;9.95;7.10;;;;;;;18.40;54.91;101819.50;5065477;28;20445;-29
2022/05/08 11:11:02;;;;;;;10.50;6.88;;;;;;;18.39;54.53;101825.78;5069667;28;20679;-27
2022/05/08 11:13:48;;;;;;;16.00;6.88;;;;;;;18.81;54.10;101817.63;5070705;28;20071;-27
2022/05/08 11:16:29;;;;;;;13.10;7.43;;;;;;;19.21;59.42;101814.88;5075646;28;20032;-28
2022/05/08 11:18:57;;;;;;;;;;;;;;;19.07;55.31;101818.78;5075614;28;20020;-29
2022/05/08 11:21:22;;;;;;;12.68;6.60;;;;;;;19.23;53.81;101813.00;5082100;28;19920;-29
2022/05/08 11:23:47;;;;;;;9.88;5.93;;;;;;;19.33;53.89;101813.63;5077104;28;20439;-29
2022/05/08 11:26:14;;;;;;;10.65;5.82;;;;;;;18.94;53.72;101820.00;5081514;28;20501;-28
2022/05/08 11:28:50;;;;;;;8.38;5.13;;;;;;;19.22;52.34;101813.94;5074181;28;20028;-29
2022/05/08 11:31:17;;;;;;;11.45;5.95;;;;;;;19.05;53.22;101814.34;5070608;28;20028;-29
2022/05/08 11:36:30;;;;;;;6.88;5.25;;;;;;;19.15;54.28;101815.91;5077758;28;20056;-29
2022/05/08 11:38:59;;;;;;;10.70;5.68;;;;;;;19.58;52.91;101808.44;5073059;28;20039;-29
2022/05/08 11:41:45;;;;;;;9.10;5.10;;;;;;;19.07;51.48;101815.22;5094905;28;20016;-29
2022/05/08 11:44:13;;;;;;;8.30;4.57;;;;;;;19.05;51.69;101809.91;5060753;28;20040;-29
2022/05/08 11:46:46;;;;;;;7.10;4.88;;;;;;;19.24;49.95;101812.06;5073513;28;20024;-29
2022/05/08 11:49:29;;;;;;;8.02;4.72;;;;;;;19.46;49.85;101817.72;5095741;28;20030;-29
2022/05/08 11:52:02;;;;;;;7.00;4.07;;;;;;;19.32;47.29;101812.78;5075516;28;20117;-29